sensor_id;sensor_type;location;lat;lon;timestamp;temperature;humidity
20568;DHT22;10442;49.932;11.592;2023-04-29T00:01:32;15.10;80.60
20568;DHT22;10442;49.932;11.592;2023-04-29T00:04:00;15.00;80.20
20568;DHT22;10442;49.932;11.592;2023-04-29T00:06:27;15.00;80.10
20568;DHT22;10442;49.932;11.592;2023-04-29T00:08:55;15.00;80.10
20568;DHT22;10442;49.932;11.592;2023-04-29T00:11:22;15.00;80.10
20568;DHT22;10442;49.932;11.592;2023-04-29T00:13:50;15.00;80.30
20568;DHT22;10442;49.932;11.592;2023-04-29T00:16:17;15.00;80.60
20568;DHT22;10442;49.932;11.592;2023-04-29T00:18:44;15.00;80.70
20568;DHT22;10442;49.932;11.592;2023-04-29T00:21:12;15.00;80.70
20568;DHT22;10442;49.932;11.592;2023-04-29T00:23:39;15.00;80.70
20568;DHT22;10442;49.932;11.592;2023-04-29T00:26:07;15.10;80.90
20568;DHT22;10442;49.932;11.592;2023-04-29T00:28:34;15.10;80.90
20568;DHT22;10442;49.932;11.592;2023-04-29T00:31:02;15.10;81.00
20568;DHT22;10442;49.932;11.592;2023-04-29T00:33:29;15.20;80.90
20568;DHT22;10442;49.932;11.592;2023-04-29T00:35:57;15.20;80.80
20568;DHT22;10442;49.932;11.592;2023-04-29T00:38:24;15.20;80.60
20568;DHT22;10442;49.932;11.592;2023-04-29T00:40:51;15.20;80.40
20568;DHT22;10442;49.932;11.592;2023-04-29T00:43:19;15.20;80.40
20568;DHT22;10442;49.932;11.592;2023-04-29T00:45:46;15.20;80.50
20568;DHT22;10442;49.932;11.592;2023-04-29T00:48:14;15.30;80.60
20568;DHT22;10442;49.932;11.592;2023-04-29T00:50:42;15.30;80.60
20568;DHT22;10442;49.932;11.592;2023-04-29T00:53:10;15.30;80.70
20568;DHT22;10442;49.932;11.592;2023-04-29T00:55:42;15.30;80.70
20568;DHT22;10442;49.932;11.592;2023-04-29T00:58:10;15.30;80.80
20568;DHT22;10442;49.932;11.592;2023-04-29T01:00:38;15.30;80.90
20568;DHT22;10442;49.932;11.592;2023-04-29T01:03:08;15.30;81.00
20568;DHT22;10442;49.932;11.592;2023-04-29T01:05:35;15.40;81.10
20568;DHT22;10442;49.932;11.592;2023-04-29T01:08:20;15.40;81.20
20568;DHT22;10442;49.932;11.592;2023-04-29T01:10:54;15.40;81.20
20568;DHT22;10442;49.932;11.592;2023-04-29T01:13:42;15.50;81.30
20568;DHT22;10442;49.932;11.592;2023-04-29T01:16:20;15.50;81.40
20568;DHT22;10442;49.932;11.592;2023-04-29T01:18:55;15.50;81.30
20568;DHT22;10442;49.932;11.592;2023-04-29T01:21:28;15.50;81.40
20568;DHT22;10442;49.932;11.592;2023-04-29T01:23:58;15.60;81.40
20568;DHT22;10442;49.932;11.592;2023-04-29T01:26:30;15.60;81.40
20568;DHT22;10442;49.932;11.592;2023-04-29T01:31:43;15.70;81.30
20568;DHT22;10442;49.932;11.592;2023-04-29T01:34:24;15.70;81.40
20568;DHT22;10442;49.932;11.592;2023-04-29T01:37:16;15.70;81.40
20568;DHT22;10442;49.932;11.592;2023-04-29T01:42:47;15.80;82.20
20568;DHT22;10442;49.932;11.592;2023-04-29T01:45:20;15.80;81.20
20568;DHT22;10442;49.932;11.592;2023-04-29T01:47:51;15.80;81.10
20568;DHT22;10442;49.932;11.592;2023-04-29T01:50:19;15.90;81.10
20568;DHT22;10442;49.932;11.592;2023-04-29T01:52:47;15.90;81.00
20568;DHT22;10442;49.932;11.592;2023-04-29T01:55:14;15.90;80.90
20568;DHT22;10442;49.932;11.592;2023-04-29T01:57:50;15.90;80.80
20568;DHT22;10442;49.932;11.592;2023-04-29T02:00:36;15.90;80.60
20568;DHT22;10442;49.932;11.592;2023-04-29T02:03:05;15.90;80.50
20568;DHT22;10442;49.932;11.592;2023-04-29T02:05:37;15.90;80.30
20568;DHT22;10442;49.932;11.592;2023-04-29T02:08:06;15.90;80.30
20568;DHT22;10442;49.932;11.592;2023-04-29T02:10:38;15.90;80.00
20568;DHT22;10442;49.932;11.592;2023-04-29T02:13:23;15.80;79.80
20568;DHT22;10442;49.932;11.592;2023-04-29T02:15:51;15.80;79.60
20568;DHT22;10442;49.932;11.592;2023-04-29T02:18:18;15.70;79.40
20568;DHT22;10442;49.932;11.592;2023-04-29T02:20:47;15.70;79.30
20568;DHT22;10442;49.932;11.592;2023-04-29T02:23:17;15.60;79.10
20568;DHT22;10442;49.932;11.592;2023-04-29T02:25:44;15.50;78.90
20568;DHT22;10442;49.932;11.592;2023-04-29T02:28:11;15.50;78.80
20568;DHT22;10442;49.932;11.592;2023-04-29T02:30:40;15.40;78.80
20568;DHT22;10442;49.932;11.592;2023-04-29T02:33:08;15.30;78.90
20568;DHT22;10442;49.932;11.592;2023-04-29T02:35:35;15.20;79.00
20568;DHT22;10442;49.932;11.592;2023-04-29T02:38:02;15.10;79.10
20568;DHT22;10442;49.932;11.592;2023-04-29T02:40:30;15.00;79.10
20568;DHT22;10442;49.932;11.592;2023-04-29T02:42:58;15.00;79.20
20568;DHT22;10442;49.932;11.592;2023-04-29T02:45:27;14.90;79.10
20568;DHT22;10442;49.932;11.592;2023-04-29T02:47:55;14.80;79.20
20568;DHT22;10442;49.932;11.592;2023-04-29T02:50:23;14.80;79.30
20568;DHT22;10442;49.932;11.592;2023-04-29T02:52:51;14.70;79.20
20568;DHT22;10442;49.932;11.592;2023-04-29T02:55:19;14.70;79.10
20568;DHT22;10442;49.932;11.592;2023-04-29T02:57:46;14.60;78.80
20568;DHT22;10442;49.932;11.592;2023-04-29T03:00:13;14.50;78.60
20568;DHT22;10442;49.932;11.592;2023-04-29T03:02:41;14.40;78.60
20568;DHT22;10442;49.932;11.592;2023-04-29T03:05:08;14.30;78.50
20568;DHT22;10442;49.932;11.592;2023-04-29T03:07:36;14.30;78.60
20568;DHT22;10442;49.932;11.592;2023-04-29T03:10:04;14.10;78.50
20568;DHT22;10442;49.932;11.592;2023-04-29T03:12:32;14.00;78.40
20568;DHT22;10442;49.932;11.592;2023-04-29T03:15:01;14.00;78.50
20568;DHT22;10442;49.932;11.592;2023-04-29T03:17:28;13.90;78.60
20568;DHT22;10442;49.932;11.592;2023-04-29T03:19:56;13.80;78.60
20568;DHT22;10442;49.932;11.592;2023-04-29T03:22:23;13.70;78.70
20568;DHT22;10442;49.932;11.592;2023-04-29T03:24:50;13.60;78.80
20568;DHT22;10442;49.932;11.592;2023-04-29T03:27:19;13.60;79.10
20568;DHT22;10442;49.932;11.592;2023-04-29T03:29:47;13.50;79.40
20568;DHT22;10442;49.932;11.592;2023-04-29T03:32:15;13.50;79.80
20568;DHT22;10442;49.932;11.592;2023-04-29T03:34:44;13.50;80.20
20568;DHT22;10442;49.932;11.592;2023-04-29T03:37:31;13.50;80.50
20568;DHT22;10442;49.932;11.592;2023-04-29T03:40:12;13.50;80.70
20568;DHT22;10442;49.932;11.592;2023-04-29T03:42:41;13.50;80.60
20568;DHT22;10442;49.932;11.592;2023-04-29T03:45:09;13.60;80.50
20568;DHT22;10442;49.932;11.592;2023-04-29T03:47:39;13.60;80.10
20568;DHT22;10442;49.932;11.592;2023-04-29T03:50:07;13.50;79.90
20568;DHT22;10442;49.932;11.592;2023-04-29T03:52:35;13.50;80.00
20568;DHT22;10442;49.932;11.592;2023-04-29T03:55:07;13.50;80.30
20568;DHT22;10442;49.932;11.592;2023-04-29T03:57:36;13.50;80.30
20568;DHT22;10442;49.932;11.592;2023-04-29T04:00:05;13.50;80.30
20568;DHT22;10442;49.932;11.592;2023-04-29T04:02:39;13.50;80.20
20568;DHT22;10442;49.932;11.592;2023-04-29T04:05:09;13.50;80.20
20568;DHT22;10442;49.932;11.592;2023-04-29T04:07:39;13.50;80.30
20568;DHT22;10442;49.932;11.592;2023-04-29T04:10:29;13.40;80.30
20568;DHT22;10442;49.932;11.592;2023-04-29T04:12:59;13.40;80.60
20568;DHT22;10442;49.932;11.592;2023-04-29T04:15:26;13.40;80.60
20568;DHT22;10442;49.932;11.592;2023-04-29T04:17:54;13.40;80.70
20568;DHT22;10442;49.932;11.592;2023-04-29T04:20:21;13.50;80.70
20568;DHT22;10442;49.932;11.592;2023-04-29T04:22:49;13.50;80.60
20568;DHT22;10442;49.932;11.592;2023-04-29T04:25:23;13.50;80.40
20568;DHT22;10442;49.932;11.592;2023-04-29T04:27:54;13.50;80.10
20568;DHT22;10442;49.932;11.592;2023-04-29T04:30:47;13.50;80.10
20568;DHT22;10442;49.932;11.592;2023-04-29T04:33:15;13.50;80.00
20568;DHT22;10442;49.932;11.592;2023-04-29T04:35:45;13.50;80.00
20568;DHT22;10442;49.932;11.592;2023-04-29T04:38:12;13.40;80.00
20568;DHT22;10442;49.932;11.592;2023-04-29T04:40:41;13.50;80.10
20568;DHT22;10442;49.932;11.592;2023-04-29T04:43:29;13.50;80.10
20568;DHT22;10442;49.932;11.592;2023-04-29T04:45:57;13.40;80.20
20568;DHT22;10442;49.932;11.592;2023-04-29T04:48:25;13.50;80.50
20568;DHT22;10442;49.932;11.592;2023-04-29T04:50:53;13.50;80.80
20568;DHT22;10442;49.932;11.592;2023-04-29T04:53:21;13.60;80.80
20568;DHT22;10442;49.932;11.592;2023-04-29T04:56:02;13.60;80.80
20568;DHT22;10442;49.932;11.592;2023-04-29T04:58:31;13.70;80.90
20568;DHT22;10442;49.932;11.592;2023-04-29T05:00:59;13.70;80.90
20568;DHT22;10442;49.932;11.592;2023-04-29T05:03:27;13.80;81.00
20568;DHT22;10442;49.932;11.592;2023-04-29T05:05:56;13.80;81.00
20568;DHT22;10442;49.932;11.592;2023-04-29T05:08:24;13.90;81.20
20568;DHT22;10442;49.932;11.592;2023-04-29T05:10:53;14.00;81.20
20568;DHT22;10442;49.932;11.592;2023-04-29T05:13:21;14.00;81.20
20568;DHT22;10442;49.932;11.592;2023-04-29T05:15:48;14.10;81.20
20568;DHT22;10442;49.932;11.592;2023-04-29T05:18:20;14.20;81.30
20568;DHT22;10442;49.932;11.592;2023-04-29T05:20:50;14.20;81.40
20568;DHT22;10442;49.932;11.592;2023-04-29T05:23:17;14.30;81.40
20568;DHT22;10442;49.932;11.592;2023-04-29T05:25:46;14.40;81.30
20568;DHT22;10442;49.932;11.592;2023-04-29T05:28:15;14.50;81.30
20568;DHT22;10442;49.932;11.592;2023-04-29T05:30:43;14.50;81.30
20568;DHT22;10442;49.932;11.592;2023-04-29T05:33:11;14.60;82.00
20568;DHT22;10442;49.932;11.592;2023-04-29T05:35:39;14.70;81.40
20568;DHT22;10442;49.932;11.592;2023-04-29T05:38:06;14.80;81.30
20568;DHT22;10442;49.932;11.592;2023-04-29T05:40:36;14.90;81.10
20568;DHT22;10442;49.932;11.592;2023-04-29T05:43:27;15.00;81.10
20568;DHT22;10442;49.932;11.592;2023-04-29T05:45:56;15.10;81.00
20568;DHT22;10442;49.932;11.592;2023-04-29T05:48:24;15.20;81.00
20568;DHT22;10442;49.932;11.592;2023-04-29T05:50:52;15.30;80.80
20568;DHT22;10442;49.932;11.592;2023-04-29T05:53:20;15.30;80.60
20568;DHT22;10442;49.932;11.592;2023-04-29T05:55:48;15.40;80.30
20568;DHT22;10442;49.932;11.592;2023-04-29T05:58:20;15.50;79.90
20568;DHT22;10442;49.932;11.592;2023-04-29T06:00:47;15.50;79.70
20568;DHT22;10442;49.932;11.592;2023-04-29T06:03:21;15.60;79.70
20568;DHT22;10442;49.932;11.592;2023-04-29T06:05:55;15.70;79.60
20568;DHT22;10442;49.932;11.592;2023-04-29T06:08:49;15.70;79.10
20568;DHT22;10442;49.932;11.592;2023-04-29T06:11:22;15.90;79.00
20568;DHT22;10442;49.932;11.592;2023-04-29T06:13:49;15.90;78.70
20568;DHT22;10442;49.932;11.592;2023-04-29T06:16:17;16.00;78.60
20568;DHT22;10442;49.932;11.592;2023-04-29T06:18:44;16.00;78.30
20568;DHT22;10442;49.932;11.592;2023-04-29T06:21:13;16.10;78.90
20568;DHT22;10442;49.932;11.592;2023-04-29T06:23:42;16.10;78.00
20568;DHT22;10442;49.932;11.592;2023-04-29T06:26:15;16.10;77.50
20568;DHT22;10442;49.932;11.592;2023-04-29T06:28:42;16.20;78.00
20568;DHT22;10442;49.932;11.592;2023-04-29T06:31:10;16.20;77.10
20568;DHT22;10442;49.932;11.592;2023-04-29T06:33:38;16.30;77.10
20568;DHT22;10442;49.932;11.592;2023-04-29T06:36:06;16.30;77.00
20568;DHT22;10442;49.932;11.592;2023-04-29T06:39:01;16.30;77.00
20568;DHT22;10442;49.932;11.592;2023-04-29T06:41:47;16.40;76.90
20568;DHT22;10442;49.932;11.592;2023-04-29T06:44:39;16.40;76.70
20568;DHT22;10442;49.932;11.592;2023-04-29T06:47:23;16.40;76.60
20568;DHT22;10442;49.932;11.592;2023-04-29T06:50:04;16.50;76.60
20568;DHT22;10442;49.932;11.592;2023-04-29T06:52:32;16.60;76.50
20568;DHT22;10442;49.932;11.592;2023-04-29T06:55:00;16.60;76.30
20568;DHT22;10442;49.932;11.592;2023-04-29T06:57:27;16.70;75.70
20568;DHT22;10442;49.932;11.592;2023-04-29T06:59:54;16.70;75.10
20568;DHT22;10442;49.932;11.592;2023-04-29T07:02:24;16.80;75.40
20568;DHT22;10442;49.932;11.592;2023-04-29T07:04:51;16.80;75.10
20568;DHT22;10442;49.932;11.592;2023-04-29T07:07:19;16.80;75.20
20568;DHT22;10442;49.932;11.592;2023-04-29T07:09:46;16.90;75.20
20568;DHT22;10442;49.932;11.592;2023-04-29T07:12:14;17.00;75.00
20568;DHT22;10442;49.932;11.592;2023-04-29T07:14:42;17.10;74.90
20568;DHT22;10442;49.932;11.592;2023-04-29T07:17:09;17.10;74.40
20568;DHT22;10442;49.932;11.592;2023-04-29T07:19:40;17.10;74.10
20568;DHT22;10442;49.932;11.592;2023-04-29T07:22:08;17.20;73.80
20568;DHT22;10442;49.932;11.592;2023-04-29T07:24:35;17.30;73.90
20568;DHT22;10442;49.932;11.592;2023-04-29T07:27:03;17.30;73.80
20568;DHT22;10442;49.932;11.592;2023-04-29T07:29:30;17.30;73.20
20568;DHT22;10442;49.932;11.592;2023-04-29T07:31:58;17.40;73.20
20568;DHT22;10442;49.932;11.592;2023-04-29T07:34:26;17.40;73.10
20568;DHT22;10442;49.932;11.592;2023-04-29T07:36:54;17.50;72.90
20568;DHT22;10442;49.932;11.592;2023-04-29T07:39:22;17.50;72.90
20568;DHT22;10442;49.932;11.592;2023-04-29T07:41:54;17.60;72.70
20568;DHT22;10442;49.932;11.592;2023-04-29T07:44:22;17.60;72.20
20568;DHT22;10442;49.932;11.592;2023-04-29T07:46:49;17.60;72.00
20568;DHT22;10442;49.932;11.592;2023-04-29T07:49:17;17.60;71.70
20568;DHT22;10442;49.932;11.592;2023-04-29T07:51:45;17.60;71.00
20568;DHT22;10442;49.932;11.592;2023-04-29T07:54:13;17.70;71.30
20568;DHT22;10442;49.932;11.592;2023-04-29T07:56:42;17.60;71.40
20568;DHT22;10442;49.932;11.592;2023-04-29T07:59:09;17.70;71.40
20568;DHT22;10442;49.932;11.592;2023-04-29T08:01:40;17.80;71.20
20568;DHT22;10442;49.932;11.592;2023-04-29T08:04:07;17.80;71.20
20568;DHT22;10442;49.932;11.592;2023-04-29T08:06:45;17.90;71.20
20568;DHT22;10442;49.932;11.592;2023-04-29T08:09:13;18.00;71.10
20568;DHT22;10442;49.932;11.592;2023-04-29T08:11:42;18.00;70.70
20568;DHT22;10442;49.932;11.592;2023-04-29T08:14:12;18.00;70.50
20568;DHT22;10442;49.932;11.592;2023-04-29T08:16:39;18.10;69.90
20568;DHT22;10442;49.932;11.592;2023-04-29T08:19:07;18.10;69.90
20568;DHT22;10442;49.932;11.592;2023-04-29T08:21:35;18.20;70.00
20568;DHT22;10442;49.932;11.592;2023-04-29T08:24:02;18.30;69.50
20568;DHT22;10442;49.932;11.592;2023-04-29T08:26:30;18.30;68.80
20568;DHT22;10442;49.932;11.592;2023-04-29T08:28:57;18.30;68.50
20568;DHT22;10442;49.932;11.592;2023-04-29T08:31:25;18.40;68.50
20568;DHT22;10442;49.932;11.592;2023-04-29T08:33:52;18.40;68.80
20568;DHT22;10442;49.932;11.592;2023-04-29T08:36:19;18.40;68.60
20568;DHT22;10442;49.932;11.592;2023-04-29T08:38:47;18.50;68.50
20568;DHT22;10442;49.932;11.592;2023-04-29T08:41:18;18.60;67.40
20568;DHT22;10442;49.932;11.592;2023-04-29T08:43:46;18.70;66.90
20568;DHT22;10442;49.932;11.592;2023-04-29T08:46:14;18.80;66.40
20568;DHT22;10442;49.932;11.592;2023-04-29T08:48:43;19.00;66.30
20568;DHT22;10442;49.932;11.592;2023-04-29T08:51:12;19.10;64.90
20568;DHT22;10442;49.932;11.592;2023-04-29T08:53:40;19.20;65.80
20568;DHT22;10442;49.932;11.592;2023-04-29T08:56:17;19.30;65.50
20568;DHT22;10442;49.932;11.592;2023-04-29T08:58:49;19.40;64.80
20568;DHT22;10442;49.932;11.592;2023-04-29T09:01:21;19.60;64.80
20568;DHT22;10442;49.932;11.592;2023-04-29T09:04:01;19.70;64.10
20568;DHT22;10442;49.932;11.592;2023-04-29T09:06:30;19.80;63.20
20568;DHT22;10442;49.932;11.592;2023-04-29T09:09:00;19.90;62.60
20568;DHT22;10442;49.932;11.592;2023-04-29T09:11:29;20.00;62.50
20568;DHT22;10442;49.932;11.592;2023-04-29T09:14:00;20.10;61.90
20568;DHT22;10442;49.932;11.592;2023-04-29T09:16:28;20.10;61.70
20568;DHT22;10442;49.932;11.592;2023-04-29T09:18:56;20.20;62.30
20568;DHT22;10442;49.932;11.592;2023-04-29T09:21:26;20.30;61.20
20568;DHT22;10442;49.932;11.592;2023-04-29T09:23:56;20.30;61.10
20568;DHT22;10442;49.932;11.592;2023-04-29T09:26:25;20.20;60.50
20568;DHT22;10442;49.932;11.592;2023-04-29T09:31:36;20.10;60.00
20568;DHT22;10442;49.932;11.592;2023-04-29T09:34:04;20.10;60.50
20568;DHT22;10442;49.932;11.592;2023-04-29T09:37:21;20.10;60.40
20568;DHT22;10442;49.932;11.592;2023-04-29T09:39:49;20.20;59.80
20568;DHT22;10442;49.932;11.592;2023-04-29T09:42:17;20.20;60.00
20568;DHT22;10442;49.932;11.592;2023-04-29T09:44:44;20.20;60.00
20568;DHT22;10442;49.932;11.592;2023-04-29T09:47:11;20.30;59.80
20568;DHT22;10442;49.932;11.592;2023-04-29T09:49:40;20.20;59.30
20568;DHT22;10442;49.932;11.592;2023-04-29T09:52:14;20.10;58.90
20568;DHT22;10442;49.932;11.592;2023-04-29T09:54:43;20.10;59.40
20568;DHT22;10442;49.932;11.592;2023-04-29T09:57:12;20.00;59.60
20568;DHT22;10442;49.932;11.592;2023-04-29T09:59:42;19.90;60.20
20568;DHT22;10442;49.932;11.592;2023-04-29T10:02:17;19.70;60.90
20568;DHT22;10442;49.932;11.592;2023-04-29T10:04:48;19.60;60.10
20568;DHT22;10442;49.932;11.592;2023-04-29T10:07:20;19.40;59.70
20568;DHT22;10442;49.932;11.592;2023-04-29T10:09:48;19.20;60.50
20568;DHT22;10442;49.932;11.592;2023-04-29T10:12:18;19.00;61.70
20568;DHT22;10442;49.932;11.592;2023-04-29T10:20:03;18.40;64.30
20568;DHT22;10442;49.932;11.592;2023-04-29T10:22:47;18.20;65.60
20568;DHT22;10442;49.932;11.592;2023-04-29T10:25:16;18.00;66.30
20568;DHT22;10442;49.932;11.592;2023-04-29T10:27:45;17.80;67.30
20568;DHT22;10442;49.932;11.592;2023-04-29T10:30:14;17.60;67.70
20568;DHT22;10442;49.932;11.592;2023-04-29T10:32:44;17.50;68.30
20568;DHT22;10442;49.932;11.592;2023-04-29T10:35:19;17.40;69.10
20568;DHT22;10442;49.932;11.592;2023-04-29T10:37:50;17.20;69.20
20568;DHT22;10442;49.932;11.592;2023-04-29T10:40:22;17.10;69.60
20568;DHT22;10442;49.932;11.592;2023-04-29T10:42:52;17.10;70.20
20568;DHT22;10442;49.932;11.592;2023-04-29T10:53:13;17.00;71.80
20568;DHT22;10442;49.932;11.592;2023-04-29T10:55:41;17.00;71.90
20568;DHT22;10442;49.932;11.592;2023-04-29T11:01:05;17.10;73.30
20568;DHT22;10442;49.932;11.592;2023-04-29T11:06:15;17.30;73.80
20568;DHT22;10442;49.932;11.592;2023-04-29T11:08:43;17.40;73.50
20568;DHT22;10442;49.932;11.592;2023-04-29T11:11:12;17.60;73.20
20568;DHT22;10442;49.932;11.592;2023-04-29T11:13:45;17.70;73.00
20568;DHT22;10442;49.932;11.592;2023-04-29T11:16:13;17.90;72.90
20568;DHT22;10442;49.932;11.592;2023-04-29T11:19:06;18.00;71.70
20568;DHT22;10442;49.932;11.592;2023-04-29T11:21:35;18.00;70.50
20568;DHT22;10442;49.932;11.592;2023-04-29T11:24:06;17.90;69.30
20568;DHT22;10442;49.932;11.592;2023-04-29T11:26:33;17.90;69.80
20568;DHT22;10442;49.932;11.592;2023-04-29T11:29:01;17.90;69.80
20568;DHT22;10442;49.932;11.592;2023-04-29T11:31:32;17.80;70.00
20568;DHT22;10442;49.932;11.592;2023-04-29T11:34:00;17.80;70.00
20568;DHT22;10442;49.932;11.592;2023-04-29T11:36:27;17.80;70.30
20568;DHT22;10442;49.932;11.592;2023-04-29T11:39:02;17.90;70.30
20568;DHT22;10442;49.932;11.592;2023-04-29T11:41:30;17.90;69.70
20568;DHT22;10442;49.932;11.592;2023-04-29T11:43:58;18.00;70.00
20568;DHT22;10442;49.932;11.592;2023-04-29T11:46:29;18.00;69.70
20568;DHT22;10442;49.932;11.592;2023-04-29T11:48:57;18.10;70.00
20568;DHT22;10442;49.932;11.592;2023-04-29T11:51:26;18.20;69.60
20568;DHT22;10442;49.932;11.592;2023-04-29T11:53:56;18.30;69.40
20568;DHT22;10442;49.932;11.592;2023-04-29T11:56:24;18.30;68.90
20568;DHT22;10442;49.932;11.592;2023-04-29T11:58:55;18.40;68.90
20568;DHT22;10442;49.932;11.592;2023-04-29T12:01:24;18.50;69.10
20568;DHT22;10442;49.932;11.592;2023-04-29T12:03:57;18.60;68.50
20568;DHT22;10442;49.932;11.592;2023-04-29T12:06:27;18.70;67.90
20568;DHT22;10442;49.932;11.592;2023-04-29T12:08:58;18.80;66.00
20568;DHT22;10442;49.932;11.592;2023-04-29T12:11:26;18.90;65.40
20568;DHT22;10442;49.932;11.592;2023-04-29T12:13:56;18.90;65.80
20568;DHT22;10442;49.932;11.592;2023-04-29T12:16:23;19.00;65.20
20568;DHT22;10442;49.932;11.592;2023-04-29T12:18:52;19.10;63.80
20568;DHT22;10442;49.932;11.592;2023-04-29T12:21:22;19.20;63.20
20568;DHT22;10442;49.932;11.592;2023-04-29T12:23:50;19.20;62.70
20568;DHT22;10442;49.932;11.592;2023-04-29T12:26:19;19.30;63.10
20568;DHT22;10442;49.932;11.592;2023-04-29T12:28:53;19.40;63.10
20568;DHT22;10442;49.932;11.592;2023-04-29T12:31:21;19.50;61.70
20568;DHT22;10442;49.932;11.592;2023-04-29T12:33:53;19.60;62.20
20568;DHT22;10442;49.932;11.592;2023-04-29T12:36:20;19.70;60.80
20568;DHT22;10442;49.932;11.592;2023-04-29T12:38:49;19.90;60.80
20568;DHT22;10442;49.932;11.592;2023-04-29T12:41:16;19.90;59.90
20568;DHT22;10442;49.932;11.592;2023-04-29T12:43:44;20.00;60.00
20568;DHT22;10442;49.932;11.592;2023-04-29T12:46:12;20.10;59.00
20568;DHT22;10442;49.932;11.592;2023-04-29T12:48:41;20.10;60.00
20568;DHT22;10442;49.932;11.592;2023-04-29T12:51:12;20.10;58.40
20568;DHT22;10442;49.932;11.592;2023-04-29T12:53:40;20.10;58.50
20568;DHT22;10442;49.932;11.592;2023-04-29T12:56:07;20.10;58.10
20568;DHT22;10442;49.932;11.592;2023-04-29T12:58:34;20.10;57.90
20568;DHT22;10442;49.932;11.592;2023-04-29T13:01:02;20.00;57.80
20568;DHT22;10442;49.932;11.592;2023-04-29T13:03:29;20.00;58.50
20568;DHT22;10442;49.932;11.592;2023-04-29T13:05:57;20.00;58.10
20568;DHT22;10442;49.932;11.592;2023-04-29T13:08:25;19.90;57.70
20568;DHT22;10442;49.932;11.592;2023-04-29T13:10:53;19.80;58.10
20568;DHT22;10442;49.932;11.592;2023-04-29T13:13:21;19.90;58.50
20568;DHT22;10442;49.932;11.592;2023-04-29T13:15:48;19.80;58.80
20568;DHT22;10442;49.932;11.592;2023-04-29T13:18:16;19.80;57.90
20568;DHT22;10442;49.932;11.592;2023-04-29T13:20:43;19.80;58.00
20568;DHT22;10442;49.932;11.592;2023-04-29T13:23:10;19.80;57.90
20568;DHT22;10442;49.932;11.592;2023-04-29T13:25:38;19.80;57.90
20568;DHT22;10442;49.932;11.592;2023-04-29T13:28:06;19.80;58.30
20568;DHT22;10442;49.932;11.592;2023-04-29T13:30:33;19.80;58.50
20568;DHT22;10442;49.932;11.592;2023-04-29T13:33:01;19.80;57.90
20568;DHT22;10442;49.932;11.592;2023-04-29T13:35:39;19.80;57.10
20568;DHT22;10442;49.932;11.592;2023-04-29T13:38:08;19.80;57.00
20568;DHT22;10442;49.932;11.592;2023-04-29T13:40:35;19.70;56.80
20568;DHT22;10442;49.932;11.592;2023-04-29T13:43:11;19.70;57.80
20568;DHT22;10442;49.932;11.592;2023-04-29T13:45:44;19.60;57.40
20568;DHT22;10442;49.932;11.592;2023-04-29T13:48:14;19.60;57.30
20568;DHT22;10442;49.932;11.592;2023-04-29T13:50:44;19.50;57.50
20568;DHT22;10442;49.932;11.592;2023-04-29T13:53:15;19.40;57.60
20568;DHT22;10442;49.932;11.592;2023-04-29T13:55:46;19.30;57.60
20568;DHT22;10442;49.932;11.592;2023-04-29T13:58:16;19.20;56.60
20568;DHT22;10442;49.932;11.592;2023-04-29T14:00:46;19.10;57.00
20568;DHT22;10442;49.932;11.592;2023-04-29T14:03:35;18.90;57.40
20568;DHT22;10442;49.932;11.592;2023-04-29T14:06:03;18.90;56.80
20568;DHT22;10442;49.932;11.592;2023-04-29T14:08:30;18.80;57.10
20568;DHT22;10442;49.932;11.592;2023-04-29T14:10:58;18.70;57.00
20568;DHT22;10442;49.932;11.592;2023-04-29T14:13:25;18.70;57.60
20568;DHT22;10442;49.932;11.592;2023-04-29T14:15:53;18.60;57.50
20568;DHT22;10442;49.932;11.592;2023-04-29T14:18:20;18.60;57.80
20568;DHT22;10442;49.932;11.592;2023-04-29T14:20:48;18.60;57.90
20568;DHT22;10442;49.932;11.592;2023-04-29T14:23:15;18.70;57.90
20568;DHT22;10442;49.932;11.592;2023-04-29T14:25:43;18.60;57.50
20568;DHT22;10442;49.932;11.592;2023-04-29T14:28:10;18.70;57.60
20568;DHT22;10442;49.932;11.592;2023-04-29T14:30:38;18.60;57.50
20568;DHT22;10442;49.932;11.592;2023-04-29T14:33:07;18.60;57.70
20568;DHT22;10442;49.932;11.592;2023-04-29T14:35:34;18.60;58.30
20568;DHT22;10442;49.932;11.592;2023-04-29T14:38:01;18.60;57.60
20568;DHT22;10442;49.932;11.592;2023-04-29T14:40:29;18.60;57.50
20568;DHT22;10442;49.932;11.592;2023-04-29T14:42:56;18.60;57.70
20568;DHT22;10442;49.932;11.592;2023-04-29T14:45:23;18.50;57.60
20568;DHT22;10442;49.932;11.592;2023-04-29T14:47:50;18.50;57.60
20568;DHT22;10442;49.932;11.592;2023-04-29T14:50:18;18.40;57.80
20568;DHT22;10442;49.932;11.592;2023-04-29T14:52:46;18.40;58.00
20568;DHT22;10442;49.932;11.592;2023-04-29T14:55:14;18.30;57.90
20568;DHT22;10442;49.932;11.592;2023-04-29T14:57:41;18.30;58.10
20568;DHT22;10442;49.932;11.592;2023-04-29T15:00:09;18.20;58.30
20568;DHT22;10442;49.932;11.592;2023-04-29T15:02:38;18.20;58.40
20568;DHT22;10442;49.932;11.592;2023-04-29T15:05:06;18.20;58.20
20568;DHT22;10442;49.932;11.592;2023-04-29T15:07:33;18.20;58.60
20568;DHT22;10442;49.932;11.592;2023-04-29T15:10:01;18.20;58.60
20568;DHT22;10442;49.932;11.592;2023-04-29T15:12:29;18.10;58.40
20568;DHT22;10442;49.932;11.592;2023-04-29T15:14:56;18.20;58.50
20568;DHT22;10442;49.932;11.592;2023-04-29T15:17:24;18.20;58.30
20568;DHT22;10442;49.932;11.592;2023-04-29T15:19:51;18.30;58.30
20568;DHT22;10442;49.932;11.592;2023-04-29T15:22:19;18.30;58.30
20568;DHT22;10442;49.932;11.592;2023-04-29T15:24:47;18.40;58.20
20568;DHT22;10442;49.932;11.592;2023-04-29T15:27:19;18.40;57.80
20568;DHT22;10442;49.932;11.592;2023-04-29T15:29:47;18.50;57.60
20568;DHT22;10442;49.932;11.592;2023-04-29T15:32:15;18.50;57.50
20568;DHT22;10442;49.932;11.592;2023-04-29T15:34:42;18.50;57.00
20568;DHT22;10442;49.932;11.592;2023-04-29T15:37:10;18.50;56.80
20568;DHT22;10442;49.932;11.592;2023-04-29T15:39:37;18.40;56.70
20568;DHT22;10442;49.932;11.592;2023-04-29T15:42:04;18.40;56.50
20568;DHT22;10442;49.932;11.592;2023-04-29T15:44:32;18.40;56.50
20568;DHT22;10442;49.932;11.592;2023-04-29T15:47:00;18.40;56.50
20568;DHT22;10442;49.932;11.592;2023-04-29T15:49:27;18.20;56.10
20568;DHT22;10442;49.932;11.592;2023-04-29T15:51:55;18.20;56.40
20568;DHT22;10442;49.932;11.592;2023-04-29T15:54:22;18.10;56.10
20568;DHT22;10442;49.932;11.592;2023-04-29T15:56:50;18.00;56.70
20568;DHT22;10442;49.932;11.592;2023-04-29T15:59:17;17.90;57.10